sensor_id;sensor_type;location;lat;lon;timestamp;P1;durP1;ratioP1;P2;durP2;ratioP2
21192;SDS011;10754;51.106;7.164;2022-12-18T00:00:20;6.47;;;4.83;;
21192;SDS011;10754;51.106;7.164;2022-12-18T00:02:48;5.37;;;4.40;;
21192;SDS011;10754;51.106;7.164;2022-12-18T00:05:16;7.77;;;5.40;;
21192;SDS011;10754;51.106;7.164;2022-12-18T00:07:49;6.00;;;4.93;;
21192;SDS011;10754;51.106;7.164;2022-12-18T00:10:17;5.87;;;5.27;;
21192;SDS011;10754;51.106;7.164;2022-12-18T00:12:48;8.00;;;5.00;;
21192;SDS011;10754;51.106;7.164;2022-12-18T00:15:18;6.10;;;5.30;;
21192;SDS011;10754;51.106;7.164;2022-12-18T00:17:44;6.43;;;5.10;;
21192;SDS011;10754;51.106;7.164;2022-12-18T00:20:15;5.80;;;5.03;;
21192;SDS011;10754;51.106;7.164;2022-12-18T00:22:50;6.63;;;5.20;;
21192;SDS011;10754;51.106;7.164;2022-12-18T00:25:27;7.03;;;5.23;;
21192;SDS011;10754;51.106;7.164;2022-12-18T00:27:57;6.27;;;4.83;;
21192;SDS011;10754;51.106;7.164;2022-12-18T00:30:30;6.23;;;4.90;;
21192;SDS011;10754;51.106;7.164;2022-12-18T00:35:50;6.17;;;4.90;;
21192;SDS011;10754;51.106;7.164;2022-12-18T00:38:18;6.27;;;5.20;;
21192;SDS011;10754;51.106;7.164;2022-12-18T00:40:49;6.37;;;5.57;;
21192;SDS011;10754;51.106;7.164;2022-12-18T00:43:27;6.27;;;5.47;;
21192;SDS011;10754;51.106;7.164;2022-12-18T00:45:55;6.33;;;5.10;;
21192;SDS011;10754;51.106;7.164;2022-12-18T00:48:29;6.50;;;5.50;;
21192;SDS011;10754;51.106;7.164;2022-12-18T00:51:27;5.97;;;4.97;;
21192;SDS011;10754;51.106;7.164;2022-12-18T00:53:57;6.80;;;5.60;;
21192;SDS011;10754;51.106;7.164;2022-12-18T00:56:39;6.07;;;4.77;;
21192;SDS011;10754;51.106;7.164;2022-12-18T00:59:05;6.33;;;5.07;;
21192;SDS011;10754;51.106;7.164;2022-12-18T01:01:39;5.77;;;4.80;;
21192;SDS011;10754;51.106;7.164;2022-12-18T01:04:23;6.83;;;5.37;;
21192;SDS011;10754;51.106;7.164;2022-12-18T01:06:59;6.53;;;5.13;;
21192;SDS011;10754;51.106;7.164;2022-12-18T01:09:30;6.20;;;5.30;;
21192;SDS011;10754;51.106;7.164;2022-12-18T01:12:04;5.20;;;4.67;;
21192;SDS011;10754;51.106;7.164;2022-12-18T01:14:41;6.07;;;5.03;;
21192;SDS011;10754;51.106;7.164;2022-12-18T01:17:17;6.47;;;4.90;;
21192;SDS011;10754;51.106;7.164;2022-12-18T01:19:48;6.17;;;5.07;;
21192;SDS011;10754;51.106;7.164;2022-12-18T01:22:18;6.03;;;5.13;;
21192;SDS011;10754;51.106;7.164;2022-12-18T01:24:44;5.93;;;5.30;;
21192;SDS011;10754;51.106;7.164;2022-12-18T01:27:12;5.60;;;5.00;;
21192;SDS011;10754;51.106;7.164;2022-12-18T01:29:47;5.70;;;4.83;;
21192;SDS011;10754;51.106;7.164;2022-12-18T01:32:18;6.20;;;5.03;;
21192;SDS011;10754;51.106;7.164;2022-12-18T01:34:47;6.37;;;5.23;;
21192;SDS011;10754;51.106;7.164;2022-12-18T01:37:25;6.63;;;5.33;;
21192;SDS011;10754;51.106;7.164;2022-12-18T01:39:53;6.00;;;4.70;;
21192;SDS011;10754;51.106;7.164;2022-12-18T01:42:24;6.27;;;5.40;;
21192;SDS011;10754;51.106;7.164;2022-12-18T01:45:08;6.23;;;4.93;;
21192;SDS011;10754;51.106;7.164;2022-12-18T01:48:08;5.93;;;4.90;;
21192;SDS011;10754;51.106;7.164;2022-12-18T01:50:49;5.83;;;5.23;;
21192;SDS011;10754;51.106;7.164;2022-12-18T01:53:16;6.03;;;4.60;;
21192;SDS011;10754;51.106;7.164;2022-12-18T01:55:52;5.67;;;4.97;;
21192;SDS011;10754;51.106;7.164;2022-12-18T01:58:32;6.47;;;5.00;;
21192;SDS011;10754;51.106;7.164;2022-12-18T02:01:29;5.13;;;4.63;;
21192;SDS011;10754;51.106;7.164;2022-12-18T02:10:29;5.57;;;4.87;;
21192;SDS011;10754;51.106;7.164;2022-12-18T02:16:28;5.73;;;4.70;;
21192;SDS011;10754;51.106;7.164;2022-12-18T02:19:20;5.00;;;4.50;;
21192;SDS011;10754;51.106;7.164;2022-12-18T02:22:15;5.70;;;4.83;;
21192;SDS011;10754;51.106;7.164;2022-12-18T02:27:59;5.10;;;4.43;;
21192;SDS011;10754;51.106;7.164;2022-12-18T02:34:14;5.73;;;4.90;;
21192;SDS011;10754;51.106;7.164;2022-12-18T02:36:48;5.27;;;4.57;;
21192;SDS011;10754;51.106;7.164;2022-12-18T02:39:26;5.90;;;4.97;;
21192;SDS011;10754;51.106;7.164;2022-12-18T02:42:04;4.80;;;4.30;;
21192;SDS011;10754;51.106;7.164;2022-12-18T02:44:33;6.20;;;4.40;;
21192;SDS011;10754;51.106;7.164;2022-12-18T02:47:08;6.60;;;4.40;;
21192;SDS011;10754;51.106;7.164;2022-12-18T02:49:49;4.20;;;3.80;;
21192;SDS011;10754;51.106;7.164;2022-12-18T02:55:43;5.27;;;4.57;;
21192;SDS011;10754;51.106;7.164;2022-12-18T03:01:25;5.73;;;4.50;;
21192;SDS011;10754;51.106;7.164;2022-12-18T03:11:01;4.20;;;3.80;;
21192;SDS011;10754;51.106;7.164;2022-12-18T03:13:48;6.27;;;4.57;;
21192;SDS011;10754;51.106;7.164;2022-12-18T03:16:30;5.90;;;4.53;;
21192;SDS011;10754;51.106;7.164;2022-12-18T03:19:31;4.43;;;4.00;;
21192;SDS011;10754;51.106;7.164;2022-12-18T03:22:13;5.63;;;4.17;;
21192;SDS011;10754;51.106;7.164;2022-12-18T03:24:51;4.53;;;4.07;;
21192;SDS011;10754;51.106;7.164;2022-12-18T03:27:40;4.93;;;3.97;;
21192;SDS011;10754;51.106;7.164;2022-12-18T03:30:35;5.20;;;4.30;;
21192;SDS011;10754;51.106;7.164;2022-12-18T03:36:00;4.83;;;4.13;;
21192;SDS011;10754;51.106;7.164;2022-12-18T03:38:29;4.87;;;4.37;;
21192;SDS011;10754;51.106;7.164;2022-12-18T03:46:54;4.80;;;3.90;;
21192;SDS011;10754;51.106;7.164;2022-12-18T03:49:49;4.27;;;3.80;;
21192;SDS011;10754;51.106;7.164;2022-12-18T03:52:43;4.40;;;3.73;;
21192;SDS011;10754;51.106;7.164;2022-12-18T03:55:10;4.80;;;3.80;;
21192;SDS011;10754;51.106;7.164;2022-12-18T03:57:37;4.80;;;4.20;;
21192;SDS011;10754;51.106;7.164;2022-12-18T04:00:11;4.63;;;4.23;;
21192;SDS011;10754;51.106;7.164;2022-12-18T04:02:50;4.23;;;3.77;;
21192;SDS011;10754;51.106;7.164;2022-12-18T04:05:20;4.27;;;3.63;;
21192;SDS011;10754;51.106;7.164;2022-12-18T04:10:59;3.37;;;3.07;;
21192;SDS011;10754;51.106;7.164;2022-12-18T04:13:28;4.13;;;3.73;;
21192;SDS011;10754;51.106;7.164;2022-12-18T04:16:15;4.07;;;3.50;;
21192;SDS011;10754;51.106;7.164;2022-12-18T04:18:54;3.53;;;3.23;;
21192;SDS011;10754;51.106;7.164;2022-12-18T04:21:31;4.00;;;3.60;;
21192;SDS011;10754;51.106;7.164;2022-12-18T04:24:00;3.80;;;3.10;;
21192;SDS011;10754;51.106;7.164;2022-12-18T04:26:28;4.20;;;3.60;;
21192;SDS011;10754;51.106;7.164;2022-12-18T04:29:03;4.60;;;3.87;;
21192;SDS011;10754;51.106;7.164;2022-12-18T04:31:37;3.77;;;3.20;;
21192;SDS011;10754;51.106;7.164;2022-12-18T04:34:09;3.43;;;3.13;;
21192;SDS011;10754;51.106;7.164;2022-12-18T04:36:45;4.63;;;3.70;;
21192;SDS011;10754;51.106;7.164;2022-12-18T04:39:18;4.40;;;4.00;;
21192;SDS011;10754;51.106;7.164;2022-12-18T04:41:45;4.57;;;3.83;;
21192;SDS011;10754;51.106;7.164;2022-12-18T04:44:11;3.80;;;3.40;;
21192;SDS011;10754;51.106;7.164;2022-12-18T04:46:39;4.77;;;4.10;;
21192;SDS011;10754;51.106;7.164;2022-12-18T04:49:13;4.23;;;3.63;;
21192;SDS011;10754;51.106;7.164;2022-12-18T04:51:42;4.53;;;3.80;;
21192;SDS011;10754;51.106;7.164;2022-12-18T04:54:10;4.40;;;4.00;;
21192;SDS011;10754;51.106;7.164;2022-12-18T04:56:35;4.10;;;3.67;;
21192;SDS011;10754;51.106;7.164;2022-12-18T04:59:14;4.77;;;3.87;;
21192;SDS011;10754;51.106;7.164;2022-12-18T05:01:51;3.90;;;3.50;;
21192;SDS011;10754;51.106;7.164;2022-12-18T05:04:19;4.50;;;3.83;;
21192;SDS011;10754;51.106;7.164;2022-12-18T05:06:44;4.37;;;3.93;;
21192;SDS011;10754;51.106;7.164;2022-12-18T05:09:15;4.13;;;3.60;;
21192;SDS011;10754;51.106;7.164;2022-12-18T05:11:47;5.03;;;3.90;;
21192;SDS011;10754;51.106;7.164;2022-12-18T05:14:18;5.27;;;3.57;;
21192;SDS011;10754;51.106;7.164;2022-12-18T05:16:55;4.43;;;3.73;;
21192;SDS011;10754;51.106;7.164;2022-12-18T05:19:30;5.57;;;3.80;;
21192;SDS011;10754;51.106;7.164;2022-12-18T05:22:01;4.40;;;3.97;;
21192;SDS011;10754;51.106;7.164;2022-12-18T05:24:27;6.57;;;4.33;;
21192;SDS011;10754;51.106;7.164;2022-12-18T05:27:00;4.53;;;4.10;;
21192;SDS011;10754;51.106;7.164;2022-12-18T05:32:35;4.97;;;4.30;;
21192;SDS011;10754;51.106;7.164;2022-12-18T05:35:04;4.70;;;4.00;;
21192;SDS011;10754;51.106;7.164;2022-12-18T05:37:42;5.50;;;4.30;;
21192;SDS011;10754;51.106;7.164;2022-12-18T05:40:12;4.83;;;4.33;;
21192;SDS011;10754;51.106;7.164;2022-12-18T05:42:43;5.30;;;4.00;;
21192;SDS011;10754;51.106;7.164;2022-12-18T05:45:14;5.63;;;4.87;;
21192;SDS011;10754;51.106;7.164;2022-12-18T05:47:42;5.00;;;4.40;;
21192;SDS011;10754;51.106;7.164;2022-12-18T05:50:07;5.00;;;4.47;;
21192;SDS011;10754;51.106;7.164;2022-12-18T05:52:41;4.23;;;3.80;;
21192;SDS011;10754;51.106;7.164;2022-12-18T05:55:27;5.13;;;4.23;;
21192;SDS011;10754;51.106;7.164;2022-12-18T05:58:18;5.10;;;4.30;;
21192;SDS011;10754;51.106;7.164;2022-12-18T06:01:05;5.20;;;4.20;;
21192;SDS011;10754;51.106;7.164;2022-12-18T06:03:54;5.27;;;4.20;;
21192;SDS011;10754;51.106;7.164;2022-12-18T06:06:43;6.03;;;4.57;;
21192;SDS011;10754;51.106;7.164;2022-12-18T06:09:08;5.13;;;4.43;;
21192;SDS011;10754;51.106;7.164;2022-12-18T06:14:50;5.23;;;4.30;;
21192;SDS011;10754;51.106;7.164;2022-12-18T06:17:21;4.87;;;4.30;;
21192;SDS011;10754;51.106;7.164;2022-12-18T06:19:52;5.33;;;4.60;;
21192;SDS011;10754;51.106;7.164;2022-12-18T06:22:30;5.87;;;4.90;;
21192;SDS011;10754;51.106;7.164;2022-12-18T06:24:57;6.13;;;4.83;;
21192;SDS011;10754;51.106;7.164;2022-12-18T06:27:28;5.60;;;4.77;;
21192;SDS011;10754;51.106;7.164;2022-12-18T06:29:59;5.70;;;4.90;;
21192;SDS011;10754;51.106;7.164;2022-12-18T06:32:37;6.27;;;5.63;;
21192;SDS011;10754;51.106;7.164;2022-12-18T06:35:10;5.80;;;5.20;;
21192;SDS011;10754;51.106;7.164;2022-12-18T06:37:43;6.47;;;5.23;;
21192;SDS011;10754;51.106;7.164;2022-12-18T06:40:12;6.27;;;5.50;;
21192;SDS011;10754;51.106;7.164;2022-12-18T06:42:40;6.07;;;5.47;;
21192;SDS011;10754;51.106;7.164;2022-12-18T06:45:06;8.00;;;4.83;;
21192;SDS011;10754;51.106;7.164;2022-12-18T06:47:37;5.40;;;4.87;;
21192;SDS011;10754;51.106;7.164;2022-12-18T06:50:03;6.10;;;4.97;;
21192;SDS011;10754;51.106;7.164;2022-12-18T06:52:39;6.47;;;5.10;;
21192;SDS011;10754;51.106;7.164;2022-12-18T06:55:09;7.07;;;5.03;;
21192;SDS011;10754;51.106;7.164;2022-12-18T06:57:57;7.00;;;5.17;;
21192;SDS011;10754;51.106;7.164;2022-12-18T07:00:26;7.00;;;5.80;;
21192;SDS011;10754;51.106;7.164;2022-12-18T07:02:51;7.80;;;6.00;;
21192;SDS011;10754;51.106;7.164;2022-12-18T07:05:22;6.07;;;5.20;;
21192;SDS011;10754;51.106;7.164;2022-12-18T07:07:48;5.50;;;4.80;;
21192;SDS011;10754;51.106;7.164;2022-12-18T07:10:16;6.53;;;5.57;;
21192;SDS011;10754;51.106;7.164;2022-12-18T07:12:41;6.77;;;5.90;;
21192;SDS011;10754;51.106;7.164;2022-12-18T07:15:14;7.10;;;5.70;;
21192;SDS011;10754;51.106;7.164;2022-12-18T07:18:07;6.37;;;5.40;;
21192;SDS011;10754;51.106;7.164;2022-12-18T07:20:36;6.17;;;5.17;;
21192;SDS011;10754;51.106;7.164;2022-12-18T07:23:04;6.60;;;5.83;;
21192;SDS011;10754;51.106;7.164;2022-12-18T07:25:37;6.83;;;5.80;;
21192;SDS011;10754;51.106;7.164;2022-12-18T07:28:12;6.80;;;5.60;;
21192;SDS011;10754;51.106;7.164;2022-12-18T07:30:42;6.40;;;5.60;;
21192;SDS011;10754;51.106;7.164;2022-12-18T07:33:16;6.83;;;5.53;;
21192;SDS011;10754;51.106;7.164;2022-12-18T07:35:43;6.00;;;5.10;;
21192;SDS011;10754;51.106;7.164;2022-12-18T07:38:15;7.47;;;5.90;;
21192;SDS011;10754;51.106;7.164;2022-12-18T07:43:51;7.50;;;6.10;;
21192;SDS011;10754;51.106;7.164;2022-12-18T07:46:22;6.80;;;6.10;;
21192;SDS011;10754;51.106;7.164;2022-12-18T07:49:19;6.43;;;5.63;;
21192;SDS011;10754;51.106;7.164;2022-12-18T07:52:24;6.20;;;5.20;;
21192;SDS011;10754;51.106;7.164;2022-12-18T07:58:20;8.43;;;6.00;;
21192;SDS011;10754;51.106;7.164;2022-12-18T08:04:53;6.77;;;6.00;;
21192;SDS011;10754;51.106;7.164;2022-12-18T08:07:32;6.00;;;4.87;;
21192;SDS011;10754;51.106;7.164;2022-12-18T08:10:43;5.93;;;5.00;;
21192;SDS011;10754;51.106;7.164;2022-12-18T08:13:15;7.30;;;5.53;;
21192;SDS011;10754;51.106;7.164;2022-12-18T08:19:14;6.47;;;5.67;;
21192;SDS011;10754;51.106;7.164;2022-12-18T08:22:15;7.13;;;6.03;;
21192;SDS011;10754;51.106;7.164;2022-12-18T08:25:22;7.03;;;5.20;;
21192;SDS011;10754;51.106;7.164;2022-12-18T08:28:12;6.60;;;5.37;;
21192;SDS011;10754;51.106;7.164;2022-12-18T08:31:04;6.17;;;5.57;;
21192;SDS011;10754;51.106;7.164;2022-12-18T08:34:02;6.77;;;5.73;;
21192;SDS011;10754;51.106;7.164;2022-12-18T08:36:28;6.03;;;5.30;;
21192;SDS011;10754;51.106;7.164;2022-12-18T08:42:02;6.20;;;5.20;;
21192;SDS011;10754;51.106;7.164;2022-12-18T08:58:07;5.27;;;4.73;;
21192;SDS011;10754;51.106;7.164;2022-12-18T09:01:02;6.03;;;4.93;;
21192;SDS011;10754;51.106;7.164;2022-12-18T09:10:16;5.57;;;4.80;;
21192;SDS011;10754;51.106;7.164;2022-12-18T09:13:30;5.83;;;5.00;;
21192;SDS011;10754;51.106;7.164;2022-12-18T09:19:50;5.47;;;4.73;;
21192;SDS011;10754;51.106;7.164;2022-12-18T10:04:18;5.73;;;4.83;;
21192;SDS011;10754;51.106;7.164;2022-12-18T10:07:59;6.33;;;5.33;;
21192;SDS011;10754;51.106;7.164;2022-12-18T10:28:41;6.10;;;5.17;;
21192;SDS011;10754;51.106;7.164;2022-12-18T10:31:48;5.23;;;4.50;;
21192;SDS011;10754;51.106;7.164;2022-12-18T11:13:04;5.47;;;4.97;;
21192;SDS011;10754;51.106;7.164;2022-12-18T11:16:24;6.30;;;5.33;;
21192;SDS011;10754;51.106;7.164;2022-12-18T11:19:48;6.57;;;5.70;;
21192;SDS011;10754;51.106;7.164;2022-12-18T11:26:21;8.60;;;5.03;;
21192;SDS011;10754;51.106;7.164;2022-12-18T11:46:39;7.23;;;5.73;;
21192;SDS011;10754;51.106;7.164;2022-12-18T11:53:36;6.63;;;5.93;;
21192;SDS011;10754;51.106;7.164;2022-12-18T11:56:32;8.30;;;5.73;;
21192;SDS011;10754;51.106;7.164;2022-12-18T11:59:22;6.70;;;5.90;;
21192;SDS011;10754;51.106;7.164;2022-12-18T12:41:20;8.87;;;7.37;;
21192;SDS011;10754;51.106;7.164;2022-12-18T12:44:27;10.90;;;8.47;;
21192;SDS011;10754;51.106;7.164;2022-12-18T12:47:02;8.60;;;7.37;;
21192;SDS011;10754;51.106;7.164;2022-12-18T12:49:38;9.53;;;8.23;;
21192;SDS011;10754;51.106;7.164;2022-12-18T12:52:07;9.33;;;7.67;;
21192;SDS011;10754;51.106;7.164;2022-12-18T12:54:50;9.40;;;7.87;;
21192;SDS011;10754;51.106;7.164;2022-12-18T12:57:24;9.97;;;8.20;;
21192;SDS011;10754;51.106;7.164;2022-12-18T13:00:02;8.97;;;7.67;;
21192;SDS011;10754;51.106;7.164;2022-12-18T13:02:37;9.33;;;7.63;;
21192;SDS011;10754;51.106;7.164;2022-12-18T13:07:53;9.57;;;8.53;;
21192;SDS011;10754;51.106;7.164;2022-12-18T13:15:34;10.00;;;8.53;;
21192;SDS011;10754;51.106;7.164;2022-12-18T13:23:17;11.10;;;8.87;;
21192;SDS011;10754;51.106;7.164;2022-12-18T13:26:00;10.10;;;8.50;;
21192;SDS011;10754;51.106;7.164;2022-12-18T13:31:13;12.17;;;9.00;;
21192;SDS011;10754;51.106;7.164;2022-12-18T13:34:19;10.43;;;8.50;;
21192;SDS011;10754;51.106;7.164;2022-12-18T13:36:46;11.13;;;9.10;;
21192;SDS011;10754;51.106;7.164;2022-12-18T13:41:44;10.97;;;8.67;;
21192;SDS011;10754;51.106;7.164;2022-12-18T13:44:57;11.70;;;9.90;;
21192;SDS011;10754;51.106;7.164;2022-12-18T13:47:07;10.53;;;8.97;;
21192;SDS011;10754;51.106;7.164;2022-12-18T13:49:56;10.37;;;9.20;;
21192;SDS011;10754;51.106;7.164;2022-12-18T13:52:25;11.90;;;9.63;;
21192;SDS011;10754;51.106;7.164;2022-12-18T13:54:59;10.57;;;9.40;;
21192;SDS011;10754;51.106;7.164;2022-12-18T13:57:29;12.17;;;9.57;;
21192;SDS011;10754;51.106;7.164;2022-12-18T13:59:58;12.00;;;9.63;;
21192;SDS011;10754;51.106;7.164;2022-12-18T14:02:44;12.07;;;10.33;;
21192;SDS011;10754;51.106;7.164;2022-12-18T14:05:23;11.77;;;9.63;;
21192;SDS011;10754;51.106;7.164;2022-12-18T14:08:03;11.83;;;10.47;;
21192;SDS011;10754;51.106;7.164;2022-12-18T14:10:32;10.77;;;9.47;;
21192;SDS011;10754;51.106;7.164;2022-12-18T14:12:58;12.13;;;10.53;;
21192;SDS011;10754;51.106;7.164;2022-12-18T14:15:40;11.23;;;9.47;;
21192;SDS011;10754;51.106;7.164;2022-12-18T14:18:23;11.90;;;9.87;;
21192;SDS011;10754;51.106;7.164;2022-12-18T14:21:23;11.27;;;9.77;;
21192;SDS011;10754;51.106;7.164;2022-12-18T14:24:13;12.27;;;10.07;;
21192;SDS011;10754;51.106;7.164;2022-12-18T14:26:40;11.50;;;9.90;;
21192;SDS011;10754;51.106;7.164;2022-12-18T14:32:05;10.47;;;9.07;;
21192;SDS011;10754;51.106;7.164;2022-12-18T14:34:36;13.23;;;10.00;;
21192;SDS011;10754;51.106;7.164;2022-12-18T14:37:02;14.13;;;10.17;;
21192;SDS011;10754;51.106;7.164;2022-12-18T14:39:28;12.90;;;10.73;;
21192;SDS011;10754;51.106;7.164;2022-12-18T14:41:54;12.17;;;9.90;;
21192;SDS011;10754;51.106;7.164;2022-12-18T14:44:20;12.80;;;10.33;;
21192;SDS011;10754;51.106;7.164;2022-12-18T14:46:46;13.50;;;10.73;;
21192;SDS011;10754;51.106;7.164;2022-12-18T14:51:58;12.17;;;10.53;;
21192;SDS011;10754;51.106;7.164;2022-12-18T14:54:25;12.13;;;10.10;;
21192;SDS011;10754;51.106;7.164;2022-12-18T14:59:25;13.47;;;10.87;;
21192;SDS011;10754;51.106;7.164;2022-12-18T15:01:57;16.07;;;10.57;;
21192;SDS011;10754;51.106;7.164;2022-12-18T15:04:39;12.47;;;10.60;;
21192;SDS011;10754;51.106;7.164;2022-12-18T15:07:14;14.83;;;10.60;;
21192;SDS011;10754;51.106;7.164;2022-12-18T15:09:43;12.07;;;10.10;;
21192;SDS011;10754;51.106;7.164;2022-12-18T15:12:26;13.10;;;10.87;;
21192;SDS011;10754;51.106;7.164;2022-12-18T15:14:59;13.80;;;10.93;;
21192;SDS011;10754;51.106;7.164;2022-12-18T15:17:25;13.17;;;10.27;;
21192;SDS011;10754;51.106;7.164;2022-12-18T15:19:52;13.83;;;11.60;;
21192;SDS011;10754;51.106;7.164;2022-12-18T15:22:30;13.17;;;11.77;;
21192;SDS011;10754;51.106;7.164;2022-12-18T15:25:00;12.77;;;10.43;;
21192;SDS011;10754;51.106;7.164;2022-12-18T15:27:27;14.00;;;11.10;;
21192;SDS011;10754;51.106;7.164;2022-12-18T15:32:32;12.97;;;10.53;;
21192;SDS011;10754;51.106;7.164;2022-12-18T15:35:41;13.03;;;11.40;;
21192;SDS011;10754;51.106;7.164;2022-12-18T15:37:52;12.57;;;10.93;;
21192;SDS011;10754;51.106;7.164;2022-12-18T15:40:22;14.27;;;11.60;;
21192;SDS011;10754;51.106;7.164;2022-12-18T15:42:49;13.40;;;10.73;;
21192;SDS011;10754;51.106;7.164;2022-12-18T15:45:36;14.50;;;11.63;;
21192;SDS011;10754;51.106;7.164;2022-12-18T15:48:09;14.47;;;11.60;;
21192;SDS011;10754;51.106;7.164;2022-12-18T15:50:46;12.60;;;10.57;;
21192;SDS011;10754;51.106;7.164;2022-12-18T15:53:12;13.60;;;11.67;;
21192;SDS011;10754;51.106;7.164;2022-12-18T15:55:37;14.07;;;11.80;;
21192;SDS011;10754;51.106;7.164;2022-12-18T15:58:21;15.87;;;12.37;;
21192;SDS011;10754;51.106;7.164;2022-12-18T16:00:47;13.03;;;10.77;;
21192;SDS011;10754;51.106;7.164;2022-12-18T16:03:13;14.23;;;11.33;;
21192;SDS011;10754;51.106;7.164;2022-12-18T16:05:39;13.23;;;11.27;;
21192;SDS011;10754;51.106;7.164;2022-12-18T16:08:05;16.37;;;12.23;;
21192;SDS011;10754;51.106;7.164;2022-12-18T16:10:31;14.13;;;12.30;;
21192;SDS011;10754;51.106;7.164;2022-12-18T16:12:57;14.10;;;11.97;;
21192;SDS011;10754;51.106;7.164;2022-12-18T16:15:22;13.73;;;12.00;;
21192;SDS011;10754;51.106;7.164;2022-12-18T16:17:48;15.90;;;13.00;;
21192;SDS011;10754;51.106;7.164;2022-12-18T16:20:15;13.80;;;12.30;;
21192;SDS011;10754;51.106;7.164;2022-12-18T16:22:43;15.50;;;12.87;;
21192;SDS011;10754;51.106;7.164;2022-12-18T16:25:15;14.43;;;12.80;;
21192;SDS011;10754;51.106;7.164;2022-12-18T16:27:46;13.30;;;11.50;;
21192;SDS011;10754;51.106;7.164;2022-12-18T16:30:15;14.87;;;12.70;;
21192;SDS011;10754;51.106;7.164;2022-12-18T16:32:43;15.43;;;12.83;;
21192;SDS011;10754;51.106;7.164;2022-12-18T16:35:10;14.70;;;13.07;;
21192;SDS011;10754;51.106;7.164;2022-12-18T16:37:36;15.67;;;13.00;;
21192;SDS011;10754;51.106;7.164;2022-12-18T16:40:03;16.00;;;13.40;;
21192;SDS011;10754;51.106;7.164;2022-12-18T16:42:29;13.97;;;12.07;;
21192;SDS011;10754;51.106;7.164;2022-12-18T16:44:55;15.57;;;13.70;;
21192;SDS011;10754;51.106;7.164;2022-12-18T16:47:21;16.20;;;13.70;;
21192;SDS011;10754;51.106;7.164;2022-12-18T16:49:47;15.70;;;13.53;;
21192;SDS011;10754;51.106;7.164;2022-12-18T16:52:16;16.40;;;13.10;;
21192;SDS011;10754;51.106;7.164;2022-12-18T16:54:42;17.37;;;13.43;;
21192;SDS011;10754;51.106;7.164;2022-12-18T16:57:09;15.63;;;13.33;;
21192;SDS011;10754;51.106;7.164;2022-12-18T16:59:38;16.23;;;13.53;;
21192;SDS011;10754;51.106;7.164;2022-12-18T17:02:04;16.50;;;13.80;;
21192;SDS011;10754;51.106;7.164;2022-12-18T17:04:29;16.60;;;13.80;;
21192;SDS011;10754;51.106;7.164;2022-12-18T17:06:55;15.10;;;13.47;;
21192;SDS011;10754;51.106;7.164;2022-12-18T17:09:21;20.30;;;14.27;;
21192;SDS011;10754;51.106;7.164;2022-12-18T17:11:51;18.77;;;15.07;;
21192;SDS011;10754;51.106;7.164;2022-12-18T17:14:18;16.33;;;13.67;;
21192;SDS011;10754;51.106;7.164;2022-12-18T17:16:46;17.40;;;14.37;;
21192;SDS011;10754;51.106;7.164;2022-12-18T17:19:12;18.63;;;15.00;;
21192;SDS011;10754;51.106;7.164;2022-12-18T17:21:40;17.97;;;13.93;;
21192;SDS011;10754;51.106;7.164;2022-12-18T17:24:07;17.63;;;13.67;;
21192;SDS011;10754;51.106;7.164;2022-12-18T17:26:33;16.30;;;13.33;;
21192;SDS011;10754;51.106;7.164;2022-12-18T17:28:59;18.13;;;13.63;;
21192;SDS011;10754;51.106;7.164;2022-12-18T17:31:28;17.80;;;14.73;;
21192;SDS011;10754;51.106;7.164;2022-12-18T17:33:55;16.40;;;14.17;;
21192;SDS011;10754;51.106;7.164;2022-12-18T17:36:21;17.33;;;14.60;;
21192;SDS011;10754;51.106;7.164;2022-12-18T17:38:51;19.47;;;15.17;;
21192;SDS011;10754;51.106;7.164;2022-12-18T17:41:18;17.00;;;14.20;;
21192;SDS011;10754;51.106;7.164;2022-12-18T17:43:44;19.57;;;15.43;;
21192;SDS011;10754;51.106;7.164;2022-12-18T17:46:17;18.90;;;14.30;;
21192;SDS011;10754;51.106;7.164;2022-12-18T17:48:43;18.20;;;14.97;;
21192;SDS011;10754;51.106;7.164;2022-12-18T17:51:09;16.17;;;13.87;;
21192;SDS011;10754;51.106;7.164;2022-12-18T17:53:37;18.33;;;14.47;;
21192;SDS011;10754;51.106;7.164;2022-12-18T17:56:06;18.03;;;14.03;;
21192;SDS011;10754;51.106;7.164;2022-12-18T17:58:37;21.20;;;15.83;;
21192;SDS011;10754;51.106;7.164;2022-12-18T18:01:03;18.17;;;14.30;;
21192;SDS011;10754;51.106;7.164;2022-12-18T18:03:30;20.07;;;15.93;;
21192;SDS011;10754;51.106;7.164;2022-12-18T18:05:58;19.93;;;16.07;;
21192;SDS011;10754;51.106;7.164;2022-12-18T18:08:25;19.50;;;15.20;;
21192;SDS011;10754;51.106;7.164;2022-12-18T18:10:52;19.87;;;15.77;;
21192;SDS011;10754;51.106;7.164;2022-12-18T18:13:23;18.43;;;15.37;;
21192;SDS011;10754;51.106;7.164;2022-12-18T18:16:09;19.73;;;14.83;;
21192;SDS011;10754;51.106;7.164;2022-12-18T18:18:36;19.30;;;15.73;;
21192;SDS011;10754;51.106;7.164;2022-12-18T18:21:07;20.40;;;15.87;;
21192;SDS011;10754;51.106;7.164;2022-12-18T18:23:33;19.33;;;14.67;;
21192;SDS011;10754;51.106;7.164;2022-12-18T18:26:06;21.10;;;15.67;;
21192;SDS011;10754;51.106;7.164;2022-12-18T18:28:33;19.07;;;15.33;;
21192;SDS011;10754;51.106;7.164;2022-12-18T18:31:03;18.53;;;14.97;;
21192;SDS011;10754;51.106;7.164;2022-12-18T18:33:30;19.37;;;15.80;;
21192;SDS011;10754;51.106;7.164;2022-12-18T18:35:56;21.30;;;16.27;;
21192;SDS011;10754;51.106;7.164;2022-12-18T18:38:22;20.40;;;15.23;;
21192;SDS011;10754;51.106;7.164;2022-12-18T18:40:56;19.77;;;15.90;;
21192;SDS011;10754;51.106;7.164;2022-12-18T18:43:25;20.00;;;15.27;;
21192;SDS011;10754;51.106;7.164;2022-12-18T18:45:55;19.63;;;15.73;;
21192;SDS011;10754;51.106;7.164;2022-12-18T18:48:22;21.20;;;15.93;;
21192;SDS011;10754;51.106;7.164;2022-12-18T18:51:00;21.60;;;15.30;;
21192;SDS011;10754;51.106;7.164;2022-12-18T18:53:27;19.60;;;16.10;;
21192;SDS011;10754;51.106;7.164;2022-12-18T18:55:56;20.60;;;16.20;;
21192;SDS011;10754;51.106;7.164;2022-12-18T18:58:23;22.13;;;16.53;;
21192;SDS011;10754;51.106;7.164;2022-12-18T19:00:59;22.23;;;17.00;;
21192;SDS011;10754;51.106;7.164;2022-12-18T19:03:29;20.43;;;15.93;;
21192;SDS011;10754;51.106;7.164;2022-12-18T19:05:57;20.80;;;16.03;;
21192;SDS011;10754;51.106;7.164;2022-12-18T19:08:25;21.33;;;16.00;;
21192;SDS011;10754;51.106;7.164;2022-12-18T19:10:53;21.90;;;15.40;;
21192;SDS011;10754;51.106;7.164;2022-12-18T19:13:20;21.10;;;16.03;;
21192;SDS011;10754;51.106;7.164;2022-12-18T19:15:49;20.57;;;16.70;;
21192;SDS011;10754;51.106;7.164;2022-12-18T19:18:16;20.93;;;16.30;;
21192;SDS011;10754;51.106;7.164;2022-12-18T19:20:43;21.43;;;16.50;;
21192;SDS011;10754;51.106;7.164;2022-12-18T19:23:09;22.10;;;16.90;;
21192;SDS011;10754;51.106;7.164;2022-12-18T19:25:36;22.37;;;17.07;;
21192;SDS011;10754;51.106;7.164;2022-12-18T19:28:03;20.33;;;15.57;;
21192;SDS011;10754;51.106;7.164;2022-12-18T19:30:29;21.80;;;16.40;;
21192;SDS011;10754;51.106;7.164;2022-12-18T19:32:54;21.07;;;16.03;;
21192;SDS011;10754;51.106;7.164;2022-12-18T19:35:21;22.43;;;16.57;;
21192;SDS011;10754;51.106;7.164;2022-12-18T19:37:47;21.97;;;16.37;;
21192;SDS011;10754;51.106;7.164;2022-12-18T19:40:13;21.43;;;16.17;;
21192;SDS011;10754;51.106;7.164;2022-12-18T19:42:39;21.03;;;15.87;;
21192;SDS011;10754;51.106;7.164;2022-12-18T19:45:05;21.73;;;16.73;;
21192;SDS011;10754;51.106;7.164;2022-12-18T19:47:31;22.07;;;16.40;;
21192;SDS011;10754;51.106;7.164;2022-12-18T19:49:57;21.30;;;15.60;;
21192;SDS011;10754;51.106;7.164;2022-12-18T19:52:23;20.97;;;16.37;;
21192;SDS011;10754;51.106;7.164;2022-12-18T19:54:49;20.20;;;15.07;;
21192;SDS011;10754;51.106;7.164;2022-12-18T19:57:15;21.23;;;14.93;;
21192;SDS011;10754;51.106;7.164;2022-12-18T19:59:41;22.17;;;16.73;;
21192;SDS011;10754;51.106;7.164;2022-12-18T20:02:10;19.20;;;14.97;;